createdAt,value
2024-03-01T00:02:26.619Z,27.50
2024-03-01T00:04:56.460Z,26.67
2024-03-01T00:07:25.967Z,28.00
2024-03-01T00:09:54.214Z,28.75
2024-03-01T00:12:22.570Z,28.98
2024-03-01T00:14:50.736Z,29.55
2024-03-01T00:17:18.804Z,28.98
2024-03-01T00:19:50.171Z,29.25
2024-03-01T00:22:20.652Z,30.92
2024-03-01T00:24:49.102Z,29.17
2024-03-01T00:27:17.580Z,31.77
2024-03-01T00:29:45.930Z,31.48
2024-03-01T00:32:14.505Z,29.80
2024-03-01T00:34:42.643Z,29.98
2024-03-01T00:37:10.826Z,28.80
2024-03-01T00:39:40.640Z,31.95
2024-03-01T00:42:09.661Z,28.83
2024-03-01T00:44:37.670Z,31.65
2024-03-01T00:47:05.898Z,32.05
2024-03-01T00:49:35.044Z,32.80
2024-03-01T00:52:03.272Z,33.60
2024-03-01T00:54:31.375Z,31.63
2024-03-01T00:57:00.866Z,31.33
2024-03-01T00:59:28.912Z,33.05
2024-03-01T01:06:13.672Z,34.47
2024-03-01T01:08:42.103Z,33.65
2024-03-01T01:11:10.174Z,33.72
2024-03-01T01:13:39.788Z,35.80
2024-03-01T01:16:08.317Z,38.03
2024-03-01T01:18:39.133Z,37.15
2024-03-01T01:21:07.750Z,37.40
2024-03-01T01:23:36.290Z,37.45
2024-03-01T01:26:06.116Z,39.15
2024-03-01T01:28:35.309Z,37.35
2024-03-01T01:31:09.680Z,39.00
2024-03-01T01:33:38.830Z,38.13
2024-03-01T01:36:08.909Z,40.20
2024-03-01T01:38:38.642Z,38.50
2024-03-01T01:41:07.304Z,40.88
2024-03-01T01:43:37.633Z,38.33
2024-03-01T01:46:07.983Z,43.17
2024-03-01T01:48:40.037Z,39.47
2024-03-01T01:51:09.937Z,40.40
2024-03-01T01:53:40.036Z,38.58
2024-03-01T01:56:09.635Z,40.85
2024-03-01T01:58:38.252Z,39.67
2024-03-01T02:01:09.227Z,39.55
2024-03-01T02:03:38.553Z,41.47
2024-03-01T02:06:07.536Z,38.53
2024-03-01T02:08:36.726Z,40.25
2024-03-01T02:11:06.561Z,43.30
2024-03-01T02:13:34.803Z,44.35
2024-03-01T02:16:02.936Z,44.42
2024-03-01T02:18:34.364Z,42.22
2024-03-01T02:21:08.277Z,43.87
2024-03-01T02:23:39.641Z,43.67
2024-03-01T02:26:09.310Z,46.17
2024-03-01T02:28:44.525Z,44.35
2024-03-01T02:31:12.953Z,48.97
2024-03-01T02:33:41.140Z,48.17
2024-03-01T02:36:10.307Z,46.15
2024-03-01T02:38:39.739Z,46.58
2024-03-01T02:41:07.788Z,46.80
2024-03-01T02:43:35.860Z,47.80
2024-03-01T02:46:04.037Z,48.90
2024-03-01T02:48:33.338Z,48.78
2024-03-01T02:51:01.872Z,48.85
2024-03-01T02:53:29.971Z,49.58
2024-03-01T02:55:59.754Z,48.58
2024-03-01T02:58:27.975Z,51.97
2024-03-01T03:00:57.317Z,49.47
2024-03-01T03:03:25.597Z,48.15
2024-03-01T03:05:54.067Z,51.13
2024-03-01T03:08:23.569Z,51.00
2024-03-01T03:10:52.043Z,50.10
2024-03-01T03:13:21.709Z,49.90
2024-03-01T03:15:50.247Z,51.25
2024-03-01T03:18:18.664Z,49.58
2024-03-01T03:20:46.913Z,50.55
2024-03-01T03:23:15.001Z,51.05
2024-03-01T03:25:43.425Z,50.55
2024-03-01T03:28:12.076Z,52.50
2024-03-01T03:30:41.629Z,51.35
2024-03-01T03:33:10.126Z,51.78
2024-03-01T03:35:38.168Z,54.63
2024-03-01T03:38:06.224Z,54.03
2024-03-01T03:40:34.598Z,55.15
2024-03-01T03:43:03.132Z,52.30
2024-03-01T03:45:31.286Z,54.63
2024-03-01T03:48:00.965Z,53.83
2024-03-01T03:50:30.657Z,51.08
2024-03-01T03:52:59.121Z,53.85
2024-03-01T03:55:28.011Z,54.95
2024-03-01T03:57:56.380Z,56.58
2024-03-01T04:00:24.883Z,57.47
2024-03-01T04:02:53.135Z,52.72
2024-03-01T04:05:22.744Z,56.22
2024-03-01T04:07:50.800Z,55.92
2024-03-01T04:10:19.236Z,51.63
2024-03-01T04:12:48.397Z,56.45
2024-03-01T04:15:19.201Z,55.65
2024-03-01T04:17:47.404Z,58.42
2024-03-01T04:20:17.665Z,56.28
2024-03-01T04:22:47.056Z,59.35
2024-03-01T04:25:15.147Z,59.28
2024-03-01T04:27:44.031Z,59.03
2024-03-01T04:30:13.061Z,56.72
2024-03-01T04:32:41.302Z,59.08
2024-03-01T04:35:09.586Z,78.38
2024-03-01T04:37:37.756Z,57.70
2024-03-01T04:40:08.066Z,63.47
2024-03-01T04:42:38.882Z,60.20
2024-03-01T04:45:08.516Z,65.18
2024-03-01T04:47:36.712Z,59.13
2024-03-01T04:50:07.723Z,61.22
2024-03-01T04:52:37.261Z,65.03
2024-03-01T04:55:10.766Z,62.70
2024-03-01T04:57:39.418Z,62.35
2024-03-01T05:00:13.674Z,62.85
2024-03-01T05:02:42.653Z,61.92
2024-03-01T05:05:11.482Z,64.25
2024-03-01T05:07:40.070Z,64.88
2024-03-01T05:10:11.652Z,61.53
2024-03-01T05:12:40.952Z,63.15
2024-03-01T05:15:13.800Z,62.63
2024-03-01T05:17:42.944Z,63.33
2024-03-01T05:20:12.870Z,66.63
2024-03-01T05:22:41.465Z,70.40
2024-03-01T05:25:18.801Z,70.20
2024-03-01T05:27:49.198Z,62.63
2024-03-01T05:30:31.594Z,63.15
2024-03-01T05:33:08.417Z,65.10
2024-03-01T05:35:38.202Z,67.30
2024-03-01T05:38:06.531Z,69.18
2024-03-01T05:40:46.654Z,68.78
2024-03-01T05:43:20.361Z,68.15
2024-03-01T05:45:48.818Z,65.70
2024-03-01T05:48:18.743Z,70.40
2024-03-01T05:50:47.726Z,70.80
2024-03-01T05:53:17.630Z,71.28
2024-03-01T05:55:48.334Z,70.93
2024-03-01T05:58:16.728Z,69.05
2024-03-01T06:00:47.017Z,65.00
2024-03-01T06:03:15.419Z,69.72
2024-03-01T06:05:44.539Z,66.93
2024-03-01T06:08:12.550Z,66.68
2024-03-01T06:10:40.944Z,68.05
2024-03-01T06:13:13.236Z,70.72
2024-03-01T06:18:09.211Z,64.70
2024-03-01T06:20:37.594Z,69.00
2024-03-01T06:23:07.002Z,70.35
2024-03-01T06:25:35.432Z,71.75
2024-03-01T06:28:05.570Z,69.38
2024-03-01T06:30:37.294Z,69.47
2024-03-01T06:33:10.266Z,65.78
2024-03-01T06:35:39.264Z,70.15
2024-03-01T06:38:07.766Z,67.28
2024-03-01T06:40:45.016Z,69.63
2024-03-01T06:43:18.818Z,64.80
2024-03-01T06:45:51.002Z,65.95
2024-03-01T06:48:27.498Z,65.45
2024-03-01T06:51:00.198Z,64.60
2024-03-01T06:53:31.260Z,65.47
2024-03-01T06:56:04.737Z,62.83
2024-03-01T06:58:36.303Z,64.68
2024-03-01T07:01:10.784Z,66.90
2024-03-01T07:03:39.948Z,64.20
2024-03-01T07:06:09.542Z,64.07
2024-03-01T07:08:39.447Z,64.57
2024-03-01T07:11:08.595Z,63.38
2024-03-01T07:13:43.191Z,67.40
2024-03-01T07:16:16.902Z,64.47
2024-03-01T07:18:48.744Z,62.70
2024-03-01T07:21:19.117Z,62.88
2024-03-01T07:23:48.156Z,64.72
2024-03-01T07:26:16.996Z,62.70
2024-03-01T07:28:57.144Z,62.92
2024-03-01T07:31:30.603Z,61.13
2024-03-01T07:34:04.823Z,59.47
2024-03-01T07:36:39.991Z,60.97
2024-03-01T07:39:14.638Z,62.13
2024-03-01T07:41:43.180Z,62.28
2024-03-01T07:44:13.728Z,59.90
2024-03-01T07:46:49.300Z,59.97
2024-03-01T07:49:19.006Z,60.20
2024-03-01T07:51:52.464Z,59.42
2024-03-01T07:54:26.426Z,58.47
2024-03-01T07:57:09.101Z,58.85
2024-03-01T07:59:52.431Z,58.63
2024-03-01T08:02:22.903Z,54.00
2024-03-01T08:04:54.342Z,55.90
2024-03-01T08:07:30.079Z,54.85
2024-03-01T08:10:01.005Z,51.83
2024-03-01T08:12:29.653Z,53.78
2024-03-01T08:15:00.803Z,52.33
2024-03-01T08:17:41.636Z,52.25
2024-03-01T08:20:29.993Z,50.42
2024-03-01T08:23:00.145Z,49.45
2024-03-01T08:25:36.528Z,46.35
2024-03-01T08:28:11.275Z,44.08
2024-03-01T08:31:20.602Z,45.95
2024-03-01T08:34:06.767Z,43.35
2024-03-01T08:36:37.200Z,41.38
2024-03-01T08:39:12.103Z,40.80
2024-03-01T08:41:43.275Z,39.72
2024-03-01T08:44:39.217Z,36.90
2024-03-01T08:47:08.876Z,32.72
2024-03-01T08:50:20.298Z,32.90
2024-03-01T08:53:00.043Z,33.85
2024-03-01T08:55:44.100Z,33.28
2024-03-01T08:58:22.396Z,33.20
2024-03-01T09:00:54.682Z,30.20
2024-03-01T09:03:30.940Z,32.60
2024-03-01T09:06:01.841Z,31.65
2024-03-01T09:08:45.181Z,29.35
2024-03-01T09:11:14.807Z,30.27
2024-03-01T09:13:45.998Z,28.00
2024-03-01T09:16:21.874Z,28.35
2024-03-01T09:18:53.642Z,28.80
2024-03-01T09:22:11.701Z,28.33
2024-03-01T09:24:44.435Z,27.65
2024-03-01T09:27:26.044Z,25.65
2024-03-01T09:30:09.214Z,25.35
2024-03-01T09:32:52.649Z,25.65
2024-03-01T09:35:26.404Z,25.83
2024-03-01T09:38:04.246Z,23.98
2024-03-01T09:41:29.502Z,25.65
2024-03-01T09:44:17.747Z,24.48
2024-03-01T09:47:05.909Z,24.20
2024-03-01T09:50:08.897Z,24.45
2024-03-01T09:52:46.372Z,25.58
2024-03-01T09:55:27.649Z,24.77
2024-03-01T09:58:06.182Z,26.40
2024-03-01T10:00:48.307Z,24.20
2024-03-01T10:03:40.697Z,22.13
2024-03-01T10:06:33.358Z,23.48
2024-03-01T10:11:58.588Z,21.45
2024-03-01T10:14:43.701Z,23.48
2024-03-01T10:17:21.747Z,23.90
2024-03-01T10:20:17.177Z,23.63
2024-03-01T10:22:58.560Z,23.80
2024-03-01T10:25:42.926Z,22.63
2024-03-01T10:28:26.282Z,21.75
2024-03-01T10:31:02.646Z,22.10
2024-03-01T10:33:48.569Z,23.65
2024-03-01T10:36:24.493Z,19.88
2024-03-01T10:39:28.696Z,21.73
2024-03-01T10:42:10.140Z,20.67
2024-03-01T10:44:48.548Z,21.27
2024-03-01T10:47:25.716Z,21.88
2024-03-01T10:50:18.523Z,22.55
2024-03-01T10:55:24.838Z,21.38
2024-03-01T10:57:59.530Z,22.60
2024-03-01T11:00:36.600Z,22.50
2024-03-01T11:03:21.628Z,20.02
2024-03-01T11:06:08.478Z,21.88
2024-03-01T11:08:48.105Z,23.63
2024-03-01T11:11:22.635Z,23.10
2024-03-01T11:13:57.350Z,22.55
2024-03-01T11:16:34.092Z,22.67
2024-03-01T11:19:15.038Z,23.25
2024-03-01T11:21:51.847Z,24.13
2024-03-01T11:24:29.492Z,23.02
2024-03-01T11:27:00.807Z,23.55
2024-03-01T11:29:46.782Z,24.65
2024-03-01T11:32:22.310Z,24.77
2024-03-01T11:35:02.757Z,24.95
2024-03-01T11:37:45.765Z,23.08
2024-03-01T11:40:26.544Z,21.48
2024-03-01T11:43:10.909Z,22.90
2024-03-01T11:46:18.798Z,23.42
2024-03-01T11:49:15.695Z,22.73
2024-03-01T11:52:06.009Z,21.50
2024-03-01T11:55:04.513Z,22.25
2024-03-01T11:57:46.455Z,22.55
2024-03-01T12:00:46.250Z,22.80
2024-03-01T12:03:46.036Z,21.33
2024-03-01T12:06:50.297Z,23.60
2024-03-01T12:09:28.119Z,22.17
2024-03-01T12:12:21.111Z,23.10
2024-03-01T12:15:02.723Z,21.98
2024-03-01T12:17:35.586Z,22.48
2024-03-01T12:20:12.541Z,22.10
2024-03-01T12:23:07.721Z,23.50
2024-03-01T12:25:45.902Z,19.92
2024-03-01T12:28:34.527Z,21.48
2024-03-01T12:31:10.073Z,22.13
2024-03-01T12:33:53.487Z,21.33
2024-03-01T12:36:44.025Z,21.35
2024-03-01T12:39:32.764Z,21.45
2024-03-01T12:42:08.279Z,22.80
2024-03-01T12:44:50.379Z,23.25
2024-03-01T12:47:45.277Z,21.02
2024-03-01T12:50:32.485Z,20.95
2024-03-01T12:53:16.153Z,21.45
2024-03-01T12:55:54.071Z,23.20
2024-03-01T12:58:33.631Z,20.85
2024-03-01T13:01:14.697Z,22.20
2024-03-01T13:03:55.706Z,24.42
2024-03-01T13:06:38.343Z,23.98
2024-03-01T13:12:08.222Z,25.00
2024-03-01T13:14:57.709Z,25.20
2024-03-01T13:17:38.009Z,24.85
2024-03-01T13:20:27.718Z,25.08
2024-03-01T13:23:10.129Z,25.38
2024-03-01T13:25:49.268Z,25.35
2024-03-01T13:28:19.604Z,24.60
2024-03-01T13:30:52.729Z,25.02
2024-03-01T13:33:32.489Z,24.95
2024-03-01T13:36:13.375Z,24.60
2024-03-01T13:39:14.594Z,25.20
2024-03-01T13:41:55.043Z,23.83
2024-03-01T13:44:36.504Z,23.33
2024-03-01T13:47:19.991Z,24.20
2024-03-01T13:49:58.043Z,23.10
2024-03-01T13:52:40.371Z,24.73
2024-03-01T13:55:26.507Z,23.58
2024-03-01T13:58:07.777Z,23.02
2024-03-01T14:00:54.746Z,22.45
2024-03-01T14:03:24.330Z,24.00
2024-03-01T14:05:57.444Z,22.85
2024-03-01T14:08:26.616Z,22.80
2024-03-01T14:10:56.761Z,23.35
2024-03-01T14:13:26.794Z,21.80
2024-03-01T14:16:04.225Z,23.65
2024-03-01T14:18:32.930Z,23.73
2024-03-01T14:21:18.460Z,23.17
2024-03-01T14:23:47.274Z,21.40
2024-03-01T14:26:15.683Z,21.95
2024-03-01T14:28:46.763Z,22.50
2024-03-01T14:31:15.228Z,22.60
2024-03-01T14:33:57.656Z,21.55
2024-03-01T14:36:27.605Z,25.50
2024-03-01T14:38:57.348Z,23.65
2024-03-01T14:41:39.641Z,23.30
2024-03-01T14:44:09.263Z,22.38
2024-03-01T14:46:39.883Z,23.10
2024-03-01T14:49:16.977Z,24.05
2024-03-01T14:51:49.276Z,23.38
2024-03-01T14:54:23.314Z,23.20
2024-03-01T14:56:52.052Z,24.90
2024-03-01T14:59:22.063Z,25.77
2024-03-01T15:01:52.778Z,23.83
2024-03-01T15:04:22.644Z,25.13
2024-03-01T15:06:54.085Z,23.63
2024-03-01T15:09:24.201Z,24.38
2024-03-01T15:11:54.995Z,23.50
2024-03-01T15:14:27.532Z,24.88
2024-03-01T15:17:10.419Z,25.73
2024-03-01T15:19:44.584Z,25.55
2024-03-01T15:22:15.687Z,26.20
2024-03-01T15:24:45.511Z,24.92
2024-03-01T15:27:26.155Z,27.35
2024-03-01T15:29:56.243Z,26.60
2024-03-01T15:32:28.041Z,27.70
2024-03-01T15:34:57.562Z,25.25
2024-03-01T15:37:28.702Z,26.15
2024-03-01T15:39:58.293Z,27.52
2024-03-01T15:42:29.872Z,27.63
2024-03-01T15:45:01.214Z,25.83
2024-03-01T15:47:31.538Z,27.23
2024-03-01T15:50:01.821Z,26.00
2024-03-01T15:52:35.924Z,27.05
2024-03-01T15:55:09.592Z,27.92
2024-03-01T15:57:40.194Z,27.45
2024-03-01T16:00:12.572Z,28.88
2024-03-01T16:05:14.388Z,25.63
2024-03-01T16:10:22.758Z,26.75
2024-03-01T16:12:55.650Z,28.65
2024-03-01T16:15:26.253Z,28.17
2024-03-01T16:17:57.557Z,27.00
2024-03-01T16:20:31.067Z,27.88
2024-03-01T16:23:06.350Z,28.23
2024-03-01T16:25:37.104Z,26.95
2024-03-01T16:28:19.628Z,29.58
2024-03-01T16:33:24.162Z,28.05
2024-03-01T16:36:19.832Z,27.08
2024-03-01T16:38:53.688Z,28.27
2024-03-01T16:41:41.125Z,27.90
2024-03-01T16:44:36.800Z,28.08
2024-03-01T16:47:06.262Z,29.08
2024-03-01T16:49:40.621Z,28.30
2024-03-01T16:52:12.155Z,28.58
2024-03-01T16:54:45.248Z,29.35
2024-03-01T16:57:26.410Z,28.27
2024-03-01T16:59:57.296Z,28.60
2024-03-01T17:02:30.825Z,27.25
2024-03-01T17:05:00.856Z,28.77
2024-03-01T17:07:46.363Z,29.25
2024-03-01T17:10:25.272Z,180.30
2024-03-01T17:13:00.067Z,39.58
2024-03-01T17:15:29.786Z,30.75
2024-03-01T17:17:59.138Z,32.75
2024-03-01T17:20:30.519Z,30.67
2024-03-01T17:22:59.925Z,31.97
2024-03-01T17:25:30.505Z,31.33
2024-03-01T17:27:59.845Z,30.67
2024-03-01T17:30:28.814Z,31.35
2024-03-01T17:32:57.943Z,32.38
2024-03-01T17:35:26.987Z,32.05
2024-03-01T17:37:56.030Z,32.40
2024-03-01T17:40:27.022Z,35.33
2024-03-01T17:42:57.526Z,36.97
2024-03-01T17:45:26.660Z,33.97
2024-03-01T17:47:55.749Z,35.80
2024-03-01T17:50:25.138Z,32.80
2024-03-01T17:52:55.673Z,34.22
2024-03-01T17:55:24.705Z,36.22
2024-03-01T17:57:53.771Z,38.20
2024-03-01T18:00:24.518Z,36.17
2024-03-01T18:02:53.330Z,37.92
2024-03-01T18:05:21.489Z,36.70
2024-03-01T18:07:49.648Z,35.92
2024-03-01T18:10:20.597Z,36.25
2024-03-01T18:12:50.098Z,38.47
2024-03-01T18:15:18.254Z,36.83
2024-03-01T18:17:48.068Z,38.17
2024-03-01T18:20:16.612Z,39.35
2024-03-01T18:22:44.802Z,37.60
2024-03-01T18:25:13.868Z,39.10
2024-03-01T18:27:42.236Z,38.53
2024-03-01T18:30:12.712Z,40.75
2024-03-01T18:32:41.020Z,40.65
2024-03-01T18:35:11.106Z,40.35
2024-03-01T18:37:39.449Z,39.30
2024-03-01T18:40:09.369Z,40.30
2024-03-01T18:42:37.817Z,39.70
2024-03-01T18:45:07.216Z,38.63
2024-03-01T18:47:35.481Z,39.55
2024-03-01T18:50:04.203Z,43.55
2024-03-01T18:52:34.879Z,42.00
2024-03-01T18:55:03.287Z,42.22
2024-03-01T18:57:32.596Z,42.05
2024-03-01T19:00:00.737Z,39.95
2024-03-01T19:02:29.501Z,42.17
2024-03-01T19:05:00.161Z,40.53
2024-03-01T19:07:28.950Z,40.72
2024-03-01T19:09:58.377Z,40.83
2024-03-01T19:12:26.536Z,42.08
2024-03-01T19:14:54.707Z,42.83
2024-03-01T19:17:22.972Z,44.80
2024-03-01T19:19:51.131Z,43.08
2024-03-01T19:22:19.287Z,44.00
2024-03-01T19:24:47.794Z,46.47
2024-03-01T19:27:18.295Z,43.50
2024-03-01T19:29:49.558Z,45.93
2024-03-01T19:32:17.830Z,42.80
2024-03-01T19:34:46.203Z,45.58
2024-03-01T19:37:14.318Z,45.13
2024-03-01T19:39:42.789Z,44.20
2024-03-01T19:42:10.979Z,46.13
2024-03-01T19:44:42.929Z,44.20
2024-03-01T19:47:13.689Z,46.83
2024-03-01T19:49:45.845Z,43.60
2024-03-01T19:52:15.725Z,44.08
2024-03-01T19:54:44.080Z,45.95
2024-03-01T19:57:12.448Z,45.30
2024-03-01T19:59:42.116Z,44.38
2024-03-01T20:02:10.393Z,43.88
2024-03-01T20:04:39.763Z,47.13
2024-03-01T20:07:08.080Z,43.63
2024-03-01T20:09:38.846Z,44.40
2024-03-01T20:12:12.164Z,44.47
2024-03-01T20:14:41.843Z,47.10
2024-03-01T20:17:09.946Z,45.60
2024-03-01T20:19:38.351Z,43.63
2024-03-01T20:22:08.752Z,44.50
2024-03-01T20:24:37.529Z,42.33
2024-03-01T20:27:05.972Z,42.95
2024-03-01T20:29:34.210Z,46.20
2024-03-01T20:32:04.681Z,47.67
2024-03-01T20:34:33.472Z,47.40
2024-03-01T20:37:02.457Z,44.03
2024-03-01T20:39:30.983Z,45.85
2024-03-01T20:42:01.408Z,49.03
2024-03-01T20:44:30.195Z,43.75
2024-03-01T20:46:58.871Z,45.47
2024-03-01T20:49:29.772Z,49.50
2024-03-01T20:52:00.397Z,50.25
2024-03-01T20:54:28.957Z,49.88
2024-03-01T20:56:57.279Z,50.45
2024-03-01T20:59:26.108Z,46.83
2024-03-01T21:01:55.636Z,51.55
2024-03-01T21:04:24.727Z,51.60
2024-03-01T21:06:56.514Z,49.80
2024-03-01T21:09:26.771Z,51.47
2024-03-01T21:11:55.879Z,49.03
2024-03-01T21:14:25.181Z,48.10
2024-03-01T21:16:53.884Z,49.50
2024-03-01T21:19:22.790Z,48.83
2024-03-01T21:24:30.208Z,46.25
2024-03-01T21:27:01.384Z,47.53
2024-03-01T21:29:29.901Z,49.55
2024-03-01T21:31:59.585Z,48.40
2024-03-01T21:34:29.029Z,46.75
2024-03-01T21:36:58.686Z,47.13
2024-03-01T21:39:26.828Z,46.97
2024-03-01T21:41:54.996Z,47.35
2024-03-01T21:44:23.061Z,46.50
2024-03-01T21:46:51.176Z,47.38
2024-03-01T21:49:19.267Z,46.17
2024-03-01T21:51:48.658Z,48.17
2024-03-01T21:54:19.021Z,47.78
2024-03-01T21:56:47.178Z,50.20
2024-03-01T21:59:15.456Z,51.60
2024-03-01T22:01:44.407Z,51.72
2024-03-01T22:04:14.990Z,48.40
2024-03-01T22:06:43.489Z,46.05
2024-03-01T22:09:12.811Z,47.33
2024-03-01T22:11:44.936Z,47.30
2024-03-01T22:14:13.500Z,48.25
2024-03-01T22:16:41.808Z,48.33
2024-03-01T22:19:10.286Z,50.30
2024-03-01T22:21:39.820Z,49.90
2024-03-01T22:24:08.505Z,49.10
2024-03-01T22:26:36.619Z,48.83
2024-03-01T22:29:06.031Z,47.60
2024-03-01T22:31:34.361Z,49.33
2024-03-01T22:34:02.791Z,48.70
2024-03-01T22:36:31.226Z,47.47
2024-03-01T22:38:59.860Z,47.05
2024-03-01T22:41:28.441Z,46.47
2024-03-01T22:43:56.905Z,48.10
2024-03-01T22:46:29.537Z,50.72
2024-03-01T22:49:00.828Z,48.30
2024-03-01T22:51:32.333Z,50.25
2024-03-01T22:54:05.021Z,48.45
2024-03-01T22:56:36.691Z,46.55
2024-03-01T22:59:40.381Z,48.85
2024-03-01T23:02:15.090Z,49.83
2024-03-01T23:04:44.891Z,46.50
2024-03-01T23:07:15.065Z,47.63
2024-03-01T23:09:44.131Z,49.05
2024-03-01T23:12:13.629Z,49.97
2024-03-01T23:14:50.003Z,47.33
2024-03-01T23:17:22.752Z,47.15
2024-03-01T23:19:51.463Z,46.25
2024-03-01T23:22:25.085Z,46.03
2024-03-01T23:24:54.291Z,44.80
2024-03-01T23:27:25.138Z,47.30
2024-03-01T23:29:53.771Z,46.70
2024-03-01T23:32:23.814Z,45.05
2024-03-01T23:35:29.036Z,43.55
2024-03-01T23:37:58.473Z,44.88
2024-03-01T23:40:26.814Z,43.83
2024-03-01T23:42:55.381Z,43.92
2024-03-01T23:45:23.879Z,45.72
2024-03-01T23:47:53.740Z,42.42
2024-03-01T23:50:23.529Z,45.72
2024-03-01T23:52:52.492Z,41.33
2024-03-01T23:55:22.495Z,46.47
2024-03-01T23:57:51.708Z,45.13
